Time;durP1;ratioP1;P1;durP2;ratioP2;P2;SDS_P1;SDS_P2;PMS_P1;PMS_P2;Temp;Humidity;BMP_temperature;BMP_pressure;BME280_temperature;BME280_humidity;BME280_pressure;Samples;Min_cycle;Max_cycle;Signal;HPM_P1;HPM_P2
2021/08/05 00:01:54;;;;;;;;;4.67;4.00;;;;;;;;3570572;39;111785;-74
2021/08/05 00:04:22;;;;;;;;;4.00;3.00;;;;;;;;3574051;39;113832;-74
2021/08/05 00:06:49;;;;;;;;;5.00;4.33;;;;;;;;3570793;39;113876;-74
2021/08/05 00:09:15;;;;;;;;;5.00;5.00;;;;;;;;3572412;39;111854;-74
2021/08/05 00:11:42;;;;;;;;;5.00;5.00;;;;;;;;3570630;39;113145;-74
2021/08/05 00:14:09;;;;;;;;;6.50;4.00;;;;;;;;3575144;39;111951;-74
2021/08/05 00:16:35;;;;;;;;;4.50;4.50;;;;;;;;3572286;39;113427;-74
2021/08/05 00:19:02;;;;;;;;;5.50;5.50;;;;;;;;3570953;39;113942;-74
2021/08/05 00:21:30;;;;;;;;;4.00;4.00;;;;;;;;3572773;39;111802;-74
2021/08/05 00:23:56;;;;;;;;;5.00;5.00;;;;;;;;3571619;39;113149;-74
2021/08/05 00:26:23;;;;;;;;;4.00;4.00;;;;;;;;3571400;39;114243;-74
2021/08/05 00:28:49;;;;;;;;;5.00;4.00;;;;;;;;3570342;39;112005;-74
2021/08/05 00:31:17;;;;;;;;;6.33;5.00;;;;;;;;3574342;39;113840;-74
2021/08/05 00:33:43;;;;;;;;;3.33;3.33;;;;;;;;3569351;39;112951;-75
2021/08/05 00:36:10;;;;;;;;;5.67;4.00;;;;;;;;3568365;39;113778;-74
2021/08/05 00:38:38;;;;;;;;;4.33;4.33;;;;;;;;3571895;39;113927;-74
2021/08/05 00:41:05;;;;;;;;;3.00;3.00;;;;;;;;3570576;39;112261;-74
2021/08/05 00:43:34;;;;;;;;;7.00;4.00;;;;;;;;3571069;39;113241;-74
2021/08/05 00:46:00;;;;;;;;;4.33;4.00;;;;;;;;3571468;39;114859;-74
2021/08/05 00:48:27;;;;;;;;;3.00;3.00;;;;;;;;3569245;39;111872;-74
2021/08/05 00:50:54;;;;;;;;;4.00;4.00;;;;;;;;3571304;39;113937;-74
2021/08/05 00:53:21;;;;;;;;;4.00;4.00;;;;;;;;3569711;39;114604;-74
2021/08/05 00:55:49;;;;;;;;;3.67;3.00;;;;;;;;3572974;39;111881;-74
2021/08/05 00:58:15;;;;;;;;;5.50;5.00;;;;;;;;3571832;39;113850;-74
2021/08/05 01:00:49;;;;;;;;;3.75;3.75;;;;;;;;3568564;39;112191;-74
2021/08/05 01:03:21;;;;;;;;;4.50;4.00;;;;;;;;3568227;39;115264;-73
2021/08/05 01:05:50;;;;;;;;;3.50;3.50;;;;;;;;3569541;39;114198;-73
2021/08/05 01:08:19;;;;;;;;;3.33;3.00;;;;;;;;3568660;39;111937;-74
2021/08/05 01:10:49;;;;;;;;;3.00;3.00;;;;;;;;3570066;39;113074;-73
2021/08/05 01:13:20;;;;;;;;;5.75;4.00;;;;;;;;3567983;39;113947;-73
2021/08/05 01:15:47;;;;;;;;;4.00;3.25;;;;;;;;3570108;39;111723;-75
2021/08/05 01:18:15;;;;;;;;;3.25;3.25;;;;;;;;3570728;39;113385;-73
2021/08/05 01:20:43;;;;;;;;;3.50;3.50;;;;;;;;3570323;39;112341;-74
2021/08/05 01:23:13;;;;;;;;;4.00;4.00;;;;;;;;3568537;39;113385;-75
2021/08/05 01:25:45;;;;;;;;;3.00;3.00;;;;;;;;3566327;39;114284;-75
2021/08/05 01:28:13;;;;;;;;;3.25;3.25;;;;;;;;3568378;39;111812;-75
2021/08/05 01:30:41;;;;;;;;;5.50;3.00;;;;;;;;3568345;39;113401;-75
2021/08/05 01:33:09;;;;;;;;;2.75;2.75;;;;;;;;3569732;39;113907;-76
2021/08/05 01:35:36;;;;;;;;;5.00;4.00;;;;;;;;3568620;39;112335;-75
2021/08/05 01:38:02;;;;;;;;;4.00;2.25;;;;;;;;3569323;39;113287;-76
2021/08/05 01:40:30;;;;;;;;;3.00;3.00;;;;;;;;3571042;39;113948;-75
2021/08/05 01:42:58;;;;;;;;;3.25;3.00;;;;;;;;3569207;39;113675;-75
2021/08/05 01:45:26;;;;;;;;;3.00;3.00;;;;;;;;3568504;39;114071;-75
2021/08/05 01:47:52;;;;;;;;;3.25;3.25;;;;;;;;3568901;39;111886;-75
2021/08/05 01:50:19;;;;;;;;;4.00;4.00;;;;;;;;3569420;39;113272;-75
2021/08/05 01:52:46;;;;;;;;;3.00;3.00;;;;;;;;3567916;39;114425;-75
2021/08/05 01:55:14;;;;;;;;;2.75;2.75;;;;;;;;3569808;39;111909;-76
2021/08/05 01:57:40;;;;;;;;;5.00;5.00;;;;;;;;3568192;39;113297;-75
2021/08/05 02:00:08;;;;;;;;;6.00;4.00;;;;;;;;3569338;39;113879;-75
2021/08/05 02:02:36;;;;;;;;;4.25;4.25;;;;;;;;3571104;39;112004;-75
2021/08/05 02:05:05;;;;;;;;;4.00;4.00;;;;;;;;3571134;39;113874;-75
2021/08/05 02:07:33;;;;;;;;;3.00;3.00;;;;;;;;3569640;39;113222;-73
2021/08/05 02:10:01;;;;;;;;;3.75;3.75;;;;;;;;3568593;39;113884;-74
2021/08/05 02:12:30;;;;;;;;;3.00;3.00;;;;;;;;3568485;39;113785;-74
2021/08/05 02:14:57;;;;;;;;;6.25;3.00;;;;;;;;3568690;39;112328;-73
2021/08/05 02:17:23;;;;;;;;;3.00;3.00;;;;;;;;3568647;39;113377;-74
2021/08/05 02:19:51;;;;;;;;;3.00;3.00;;;;;;;;3568655;39;113912;-74
2021/08/05 02:22:19;;;;;;;;;4.00;3.50;;;;;;;;3570787;39;112335;-73
2021/08/05 02:24:46;;;;;;;;;4.25;3.50;;;;;;;;3568927;39;113877;-75
2021/08/05 02:27:13;;;;;;;;;5.75;4.00;;;;;;;;3567660;39;111879;-74
2021/08/05 02:29:40;;;;;;;;;2.25;2.25;;;;;;;;3569707;39;113344;-74
2021/08/05 02:32:08;;;;;;;;;2.50;2.00;;;;;;;;3569209;39;113894;-73
2021/08/05 02:34:36;;;;;;;;;3.00;3.00;;;;;;;;3567949;39;112244;-74
2021/08/05 02:37:04;;;;;;;;;2.00;2.00;;;;;;;;3569111;39;113682;-74
2021/08/05 02:39:31;;;;;;;;;2.00;2.00;;;;;;;;3567624;39;114406;-74
2021/08/05 02:41:59;;;;;;;;;2.50;2.00;;;;;;;;3568857;39;111899;-73
2021/08/05 02:44:26;;;;;;;;;3.00;2.00;;;;;;;;3570753;39;113475;-74
2021/08/05 02:46:53;;;;;;;;;4.25;3.00;;;;;;;;3568330;39;112128;-73
2021/08/05 02:49:20;;;;;;;;;3.00;2.00;;;;;;;;3569442;39;113365;-73
2021/08/05 02:51:47;;;;;;;;;3.50;2.25;;;;;;;;3568656;39;113802;-74
2021/08/05 02:54:15;;;;;;;;;2.25;2.25;;;;;;;;3570802;39;112573;-74
2021/08/05 02:56:42;;;;;;;;;4.50;2.75;;;;;;;;3569086;39;112570;-74
2021/08/05 02:59:09;;;;;;;;;6.50;4.25;;;;;;;;3570469;39;114023;-74
2021/08/05 03:01:35;;;;;;;;;5.25;4.25;;;;;;;;3570433;39;112043;-73
2021/08/05 03:04:02;;;;;;;;;2.50;2.50;;;;;;;;3569566;39;113453;-72
2021/08/05 03:06:29;;;;;;;;;3.50;3.50;;;;;;;;3574246;39;114703;-73
2021/08/05 03:08:56;;;;;;;;;3.00;3.00;;;;;;;;3568320;39;112521;-73
2021/08/05 03:11:24;;;;;;;;;2.25;2.25;;;;;;;;3568937;39;115139;-73
2021/08/05 03:13:50;;;;;;;;;4.00;3.50;;;;;;;;3570288;39;111938;-73
2021/08/05 03:16:17;;;;;;;;;4.00;4.00;;;;;;;;3569042;39;114099;-73
2021/08/05 03:18:44;;;;;;;;;5.00;4.00;;;;;;;;3572484;39;113804;-73
2021/08/05 03:21:10;;;;;;;;;4.50;4.25;;;;;;;;3568992;39;112046;-74
2021/08/05 03:23:37;;;;;;;;;4.00;3.25;;;;;;;;3570619;39;113710;-73
2021/08/05 03:26:04;;;;;;;;;3.50;3.00;;;;;;;;3572474;39;113871;-73
2021/08/05 03:28:32;;;;;;;;;5.75;4.50;;;;;;;;3571932;39;113080;-73
2021/08/05 03:30:58;;;;;;;;;7.00;3.75;;;;;;;;3569358;39;113706;-73
2021/08/05 03:33:25;;;;;;;;;3.00;2.50;;;;;;;;3569841;39;111996;-74
2021/08/05 03:35:51;;;;;;;;;4.00;3.50;;;;;;;;3569423;39;113279;-73
2021/08/05 03:38:18;;;;;;;;;4.00;4.00;;;;;;;;3569599;39;113965;-73
2021/08/05 03:40:44;;;;;;;;;2.50;2.50;;;;;;;;3568949;39;111792;-73
2021/08/05 03:43:11;;;;;;;;;3.00;2.00;;;;;;;;3570550;39;113324;-73
2021/08/05 03:45:49;;;;;;;;;4.00;4.00;;;;;;;;3568453;39;113781;-73
2021/08/05 03:48:15;;;;;;;;;5.00;3.75;;;;;;;;3568919;39;112760;-74
2021/08/05 03:50:42;;;;;;;;;5.25;3.00;;;;;;;;3571095;39;112554;-74
2021/08/05 03:53:09;;;;;;;;;3.00;2.00;;;;;;;;3568854;39;111847;-74
2021/08/05 03:55:35;;;;;;;;;3.00;3.00;;;;;;;;3570622;39;113261;-75
2021/08/05 03:58:02;;;;;;;;;2.50;2.00;;;;;;;;3568737;39;114260;-74
2021/08/05 04:00:28;;;;;;;;;3.00;2.75;;;;;;;;3569645;39;112105;-73
2021/08/05 04:02:56;;;;;;;;;4.00;4.00;;;;;;;;3569673;39;113489;-74
2021/08/05 04:05:23;;;;;;;;;3.50;3.25;;;;;;;;3571005;39;114222;-74
2021/08/05 04:07:50;;;;;;;;;5.25;3.50;;;;;;;;3570364;39;111814;-72
2021/08/05 04:10:16;;;;;;;;;2.00;2.00;;;;;;;;3570226;39;113329;-73
2021/08/05 04:12:43;;;;;;;;;4.00;3.00;;;;;;;;3570937;39;114173;-74
2021/08/05 04:15:10;;;;;;;;;3.25;3.25;;;;;;;;3570466;39;114008;-74
2021/08/05 04:17:37;;;;;;;;;3.50;3.50;;;;;;;;3568389;39;114433;-74
2021/08/05 04:20:06;;;;;;;;;3.00;3.00;;;;;;;;3569994;39;112071;-74
2021/08/05 04:22:33;;;;;;;;;4.25;3.00;;;;;;;;3570373;39;113694;-74
2021/08/05 04:24:59;;;;;;;;;3.00;2.75;;;;;;;;3570164;39;112763;-74
2021/08/05 04:27:26;;;;;;;;;3.00;3.00;;;;;;;;3569288;39;111767;-73
2021/08/05 04:29:52;;;;;;;;;4.75;2.50;;;;;;;;3569346;39;113775;-74
2021/08/05 04:32:19;;;;;;;;;4.00;4.00;;;;;;;;3572278;39;113888;-73
2021/08/05 04:34:47;;;;;;;;;3.50;3.50;;;;;;;;3568768;39;113584;-74
2021/08/05 04:37:15;;;;;;;;;4.75;4.00;;;;;;;;3569767;39;113949;-74
2021/08/05 04:39:42;;;;;;;;;4.00;2.25;;;;;;;;3570599;39;112828;-74
2021/08/05 04:42:09;;;;;;;;;4.25;3.25;;;;;;;;3568478;39;114121;-74
2021/08/05 04:44:35;;;;;;;;;2.00;2.00;;;;;;;;3569723;39;113825;-74
2021/08/05 04:47:02;;;;;;;;;4.00;3.75;;;;;;;;3568843;39;111862;-74
2021/08/05 04:49:28;;;;;;;;;6.25;4.25;;;;;;;;3569391;39;113375;-74
2021/08/05 04:51:55;;;;;;;;;4.00;4.00;;;;;;;;3568808;39;113773;-74
2021/08/05 04:54:23;;;;;;;;;3.50;3.25;;;;;;;;3571668;39;111935;-74
2021/08/05 04:56:50;;;;;;;;;3.00;3.00;;;;;;;;3569334;39;114013;-74
2021/08/05 04:59:17;;;;;;;;;6.00;4.50;;;;;;;;3568759;39;113084;-74
2021/08/05 05:01:43;;;;;;;;;4.00;4.00;;;;;;;;3570253;39;113387;-74
2021/08/05 05:04:10;;;;;;;;;6.25;5.00;;;;;;;;3567774;39;114185;-74
2021/08/05 05:06:37;;;;;;;;;5.25;5.00;;;;;;;;3570261;39;112088;-75
2021/08/05 05:09:03;;;;;;;;;5.50;5.50;;;;;;;;3568759;39;113394;-76
2021/08/05 05:11:31;;;;;;;;;4.00;4.00;;;;;;;;3568661;39;113887;-74
2021/08/05 05:13:58;;;;;;;;;5.00;5.00;;;;;;;;3569198;39;111734;-74
2021/08/05 05:16:25;;;;;;;;;5.00;5.00;;;;;;;;3571411;39;113580;-75
2021/08/05 05:18:51;;;;;;;;;5.00;5.00;;;;;;;;3569337;39;111757;-76
2021/08/05 05:21:18;;;;;;;;;6.00;5.00;;;;;;;;3568898;39;113329;-74
2021/08/05 05:23:45;;;;;;;;;5.00;5.00;;;;;;;;3570259;39;115214;-74
2021/08/05 05:26:11;;;;;;;;;7.50;7.00;;;;;;;;3568539;39;112064;-75
2021/08/05 05:28:39;;;;;;;;;6.00;6.00;;;;;;;;3569414;39;113193;-74
2021/08/05 05:31:06;;;;;;;;;6.75;5.00;;;;;;;;3568385;39;114441;-74
2021/08/05 05:33:32;;;;;;;;;7.00;5.00;;;;;;;;3568321;39;112036;-75
2021/08/05 05:35:59;;;;;;;;;8.25;6.00;;;;;;;;3568961;39;113280;-75
2021/08/05 05:38:26;;;;;;;;;5.00;5.00;;;;;;;;3570574;39;114080;-75
2021/08/05 05:40:52;;;;;;;;;5.25;3.50;;;;;;;;3568901;39;113660;-75
2021/08/05 05:43:19;;;;;;;;;5.50;5.00;;;;;;;;3568287;39;114742;-79
2021/08/05 05:45:47;;;;;;;;;7.75;6.00;;;;;;;;3568309;39;112417;-79
2021/08/05 05:48:13;;;;;;;;;7.50;6.00;;;;;;;;3571949;39;113864;-80
2021/08/05 05:50:41;;;;;;;;;8.00;7.00;;;;;;;;3569513;39;114135;-80
2021/08/05 05:53:07;;;;;;;;;6.00;6.00;;;;;;;;3570686;39;111946;-81
2021/08/05 05:55:34;;;;;;;;;5.50;5.50;;;;;;;;3567862;39;113425;-79
2021/08/05 05:58:01;;;;;;;;;5.75;5.75;;;;;;;;3571620;39;112841;-81
2021/08/05 06:00:27;;;;;;;;;4.50;4.50;;;;;;;;3577188;39;111914;-81
2021/08/05 06:02:55;;;;;;;;;6.50;5.00;;;;;;;;3573539;39;113043;-81
2021/08/05 06:05:22;;;;;;;;;7.25;6.75;;;;;;;;3571037;39;113683;-80
2021/08/05 06:07:49;;;;;;;;;5.75;5.00;;;;;;;;3570420;39;113908;-86
2021/08/05 06:10:17;;;;;;;;;7.00;5.75;;;;;;;;3569485;39;113879;-85
2021/08/05 06:12:44;;;;;;;;;6.00;4.50;;;;;;;;3577020;39;111981;-83
2021/08/05 06:15:12;;;;;;;;;3.50;3.00;;;;;;;;3577408;39;112253;-83
2021/08/05 06:17:40;;;;;;;;;5.75;5.75;;;;;;;;3574732;39;114039;-84
2021/08/05 06:20:10;;;;;;;;;7.00;6.00;;;;;;;;3579934;39;112233;-83
2021/08/05 06:22:37;;;;;;;;;9.00;7.25;;;;;;;;3578835;39;114235;-85
2021/08/05 06:25:04;;;;;;;;;4.25;4.00;;;;;;;;3575097;39;111938;-79
2021/08/05 06:27:31;;;;;;;;;9.50;7.00;;;;;;;;3574087;39;113321;-83
2021/08/05 06:29:58;;;;;;;;;5.00;5.00;;;;;;;;3570172;39;113852;-78
2021/08/05 06:32:25;;;;;;;;;6.00;5.00;;;;;;;;3572116;39;112862;-78
2021/08/05 06:34:51;;;;;;;;;6.00;6.00;;;;;;;;3571819;39;113471;-78
2021/08/05 06:37:19;;;;;;;;;8.75;8.00;;;;;;;;3573831;39;113804;-77
2021/08/05 06:39:46;;;;;;;;;7.00;6.00;;;;;;;;3570916;39;111814;-79
2021/08/05 06:42:12;;;;;;;;;3.25;2.50;;;;;;;;3573862;39;113394;-77
2021/08/05 06:44:39;;;;;;;;;4.00;4.00;;;;;;;;3572603;39;112012;-77
2021/08/05 06:47:06;;;;;;;;;4.25;3.75;;;;;;;;3573238;39;113669;-78
2021/08/05 06:49:33;;;;;;;;;5.00;4.50;;;;;;;;3573056;39;114451;-77
2021/08/05 06:51:59;;;;;;;;;4.50;4.50;;;;;;;;3570778;39;111742;-83
2021/08/05 06:54:27;;;;;;;;;6.75;5.75;;;;;;;;3572475;39;113351;-77
2021/08/05 06:56:56;;;;;;;;;4.00;4.00;;;;;;;;3570040;39;113881;-78
2021/08/05 06:59:22;;;;;;;;;5.50;5.50;;;;;;;;3570120;39;111807;-78
2021/08/05 07:01:49;;;;;;;;;5.75;5.00;;;;;;;;3570536;39;113316;-79
2021/08/05 07:04:15;;;;;;;;;7.75;6.50;;;;;;;;3572069;39;113941;-83
2021/08/05 07:06:42;;;;;;;;;5.00;5.00;;;;;;;;3571127;39;113154;-78
2021/08/05 07:09:09;;;;;;;;;16.00;15.75;;;;;;;;3568794;39;113752;-78
2021/08/05 07:11:37;;;;;;;;;7.50;5.75;;;;;;;;3571105;39;112078;-78
2021/08/05 07:14:03;;;;;;;;;7.50;7.50;;;;;;;;3568985;39;113824;-77
2021/08/05 07:16:30;;;;;;;;;8.00;6.00;;;;;;;;3569122;39;113862;-81
2021/08/05 07:18:57;;;;;;;;;7.50;6.00;;;;;;;;3571961;39;112855;-78
2021/08/05 07:21:23;;;;;;;;;5.00;5.00;;;;;;;;3572445;39;113435;-75
2021/08/05 07:23:50;;;;;;;;;9.75;7.00;;;;;;;;3569718;39;113994;-79
2021/08/05 07:26:16;;;;;;;;;5.25;5.25;;;;;;;;3571866;39;112218;-78
2021/08/05 07:28:44;;;;;;;;;6.75;5.75;;;;;;;;3570185;39;113556;-80
2021/08/05 07:31:12;;;;;;;;;5.00;4.25;;;;;;;;3568808;39;112355;-79
2021/08/05 07:33:38;;;;;;;;;8.00;5.50;;;;;;;;3570512;39;113371;-75
2021/08/05 07:36:05;;;;;;;;;4.00;4.00;;;;;;;;3569636;39;113825;-77
2021/08/05 07:38:32;;;;;;;;;6.00;6.00;;;;;;;;3569069;39;111894;-77
2021/08/05 07:40:58;;;;;;;;;7.25;5.50;;;;;;;;3570003;39;113411;-78
2021/08/05 07:43:25;;;;;;;;;9.00;6.00;;;;;;;;3570119;39;114165;-79
2021/08/05 07:45:53;;;;;;;;;6.67;6.00;;;;;;;;3567029;39;112210;-77
2021/08/05 07:48:20;;;;;;;;;4.00;4.00;;;;;;;;3571399;39;113780;-71
2021/08/05 07:50:46;;;;;;;;;6.00;4.00;;;;;;;;3569575;39;112099;-70
2021/08/05 07:53:13;;;;;;;;;5.00;4.00;;;;;;;;3570443;39;113305;-74
2021/08/05 07:55:39;;;;;;;;;4.33;4.00;;;;;;;;3570093;39;114066;-78
2021/08/05 07:58:06;;;;;;;;;3.00;2.33;;;;;;;;3561142;39;112678;-77
2021/08/05 08:00:35;;;;;;;;;6.00;5.00;;;;;;;;3567973;39;113345;-78
2021/08/05 08:03:03;;;;;;;;;5.00;5.00;;;;;;;;3568758;39;113924;-77
2021/08/05 08:05:30;;;;;;;;;6.33;5.33;;;;;;;;3568965;39;112289;-76
2021/08/05 08:07:59;;;;;;;;;5.67;5.00;;;;;;;;3571233;39;113374;-81
2021/08/05 08:10:26;;;;;;;;;5.33;5.33;;;;;;;;3571975;39;113810;-78
2021/08/05 08:12:55;;;;;;;;;6.00;5.00;;;;;;;;3570028;39;113319;-83
2021/08/05 08:15:24;;;;;;;;;6.33;6.33;;;;;;;;3569393;39;114045;-80
2021/08/05 08:17:50;;;;;;;;;8.33;6.00;;;;;;;;3569782;39;111864;-78
2021/08/05 08:20:19;;;;;;;;;6.33;6.33;;;;;;;;3569026;39;113202;-84
2021/08/05 08:22:45;;;;;;;;;7.67;6.67;;;;;;;;3569611;39;113896;-79
2021/08/05 08:25:12;;;;;;;;;4.00;4.00;;;;;;;;3568754;39;112193;-78
2021/08/05 08:27:40;;;;;;;;;5.00;5.00;;;;;;;;3570478;39;113399;-78
2021/08/05 08:30:07;;;;;;;;;7.67;5.67;;;;;;;;3566794;39;113838;-78
2021/08/05 08:32:33;;;;;;;;;7.33;7.33;;;;;;;;3571407;39;112022;-79
2021/08/05 08:35:00;;;;;;;;;8.00;6.00;;;;;;;;3566685;39;114245;-79
2021/08/05 08:37:28;;;;;;;;;6.00;5.67;;;;;;;;3567871;39;112819;-79
2021/08/05 08:39:54;;;;;;;;;9.00;6.33;;;;;;;;3568615;39;113689;-79
2021/08/05 08:42:21;;;;;;;;;4.67;4.00;;;;;;;;3568226;39;114303;-79
2021/08/05 08:44:48;;;;;;;;;5.00;5.00;;;;;;;;3568774;39;111848;-78
2021/08/05 08:47:14;;;;;;;;;6.67;6.67;;;;;;;;3569812;39;114225;-79
2021/08/05 08:49:42;;;;;;;;;7.00;5.33;;;;;;;;3570124;39;113854;-78
2021/08/05 08:52:09;;;;;;;;;6.00;6.00;;;;;;;;3571022;39;112018;-78
2021/08/05 08:54:43;;;;;;;;;4.00;3.00;;;;;;;;3568153;39;114057;-78
2021/08/05 08:57:11;;;;;;;;;3.00;3.00;;;;;;;;3568422;39;111861;-77
2021/08/05 08:59:39;;;;;;;;;3.67;3.00;;;;;;;;3570219;39;113682;-77
2021/08/05 09:02:05;;;;;;;;;4.33;3.33;;;;;;;;3567902;39;114461;-77
2021/08/05 09:04:32;;;;;;;;;4.33;4.00;;;;;;;;3570107;39;111914;-77
2021/08/05 09:06:59;;;;;;;;;5.33;4.67;;;;;;;;3568950;39;113310;-77
2021/08/05 09:09:25;;;;;;;;;4.00;3.00;;;;;;;;3568948;39;114017;-77
2021/08/05 09:11:53;;;;;;;;;4.67;2.33;;;;;;;;3569267;39;112184;-77
2021/08/05 09:14:35;;;;;;;;;3.00;2.33;;;;;;;;3571139;39;113542;-77
2021/08/05 09:17:15;;;;;;;;;3.33;3.33;;;;;;;;3568082;39;112153;-78
2021/08/05 09:19:41;;;;;;;;;3.33;3.33;;;;;;;;3568621;39;113485;-78
2021/08/05 09:22:08;;;;;;;;;4.33;4.00;;;;;;;;3569342;39;113957;-78
2021/08/05 09:24:34;;;;;;;;;7.33;4.00;;;;;;;;3570230;39;112647;-79
2021/08/05 09:27:04;;;;;;;;;4.33;1.33;;;;;;;;3568286;39;113358;-78
2021/08/05 09:29:31;;;;;;;;;3.67;3.00;;;;;;;;3569410;39;113970;-79
2021/08/05 09:32:00;;;;;;;;;3.33;2.67;;;;;;;;3568681;39;112010;-78
2021/08/05 09:34:32;;;;;;;;;6.00;3.00;;;;;;;;3569292;39;113654;-78
2021/08/05 09:37:00;;;;;;;;;5.00;3.00;;;;;;;;3570667;39;114248;-78
2021/08/05 09:39:27;;;;;;;;;2.33;2.00;;;;;;;;3569354;39;113826;-76
2021/08/05 09:41:55;;;;;;;;;5.33;3.67;;;;;;;;3568354;39;113883;-77
2021/08/05 09:44:26;;;;;;;;;3.00;3.00;;;;;;;;3568979;39;112108;-78
2021/08/05 09:47:03;;;;;;;;;1.00;1.00;;;;;;;;3568635;39;113362;-77
2021/08/05 09:49:29;;;;;;;;;2.00;2.00;;;;;;;;3569002;39;114274;-78
2021/08/05 09:51:56;;;;;;;;;2.33;2.33;;;;;;;;3568573;39;111991;-78
2021/08/05 09:54:23;;;;;;;;;3.00;3.00;;;;;;;;3568912;39;113282;-77
2021/08/05 09:56:53;;;;;;;;;2.67;2.67;;;;;;;;3568561;39;114149;-77
2021/08/05 09:59:20;;;;;;;;;4.33;4.00;;;;;;;;3571387;39;112348;-79
2021/08/05 10:01:58;;;;;;;;;2.00;2.00;;;;;;;;3568729;39;113855;-78
2021/08/05 10:04:26;;;;;;;;;2.67;2.67;;;;;;;;3569030;39;112501;-78
2021/08/05 10:06:57;;;;;;;;;4.33;1.67;;;;;;;;3568716;39;113853;-79
2021/08/05 16:45:27;;;;;;;;;6.00;3.67;;;;;;;;3544253;39;1509436;-85
2021/08/05 16:47:54;;;;;;;;;4.00;2.33;;;;;;;;3576629;39;114863;-84
2021/08/05 16:50:26;;;;;;;;;4.00;2.67;;;;;;;;3576902;39;112312;-84
2021/08/05 16:52:54;;;;;;;;;3.33;2.33;;;;;;;;3577745;39;113176;-81
2021/08/05 16:55:21;;;;;;;;;2.00;2.00;;;;;;;;3577810;39;114672;-80
2021/08/05 16:57:47;;;;;;;;;5.00;4.00;;;;;;;;3576528;39;112071;-79
2021/08/05 17:00:16;;;;;;;;;3.33;2.00;;;;;;;;3577260;39;113270;-78
2021/08/05 17:02:44;;;;;;;;;4.33;2.00;;;;;;;;3576762;39;114373;-77
2021/08/05 17:05:11;;;;;;;;;2.67;2.00;;;;;;;;3578888;39;112132;-76
2021/08/05 17:07:37;;;;;;;;;1.33;1.00;;;;;;;;3575568;39;114119;-75
2021/08/05 17:10:05;;;;;;;;;2.00;2.00;;;;;;;;3577391;39;113101;-76
2021/08/05 17:12:32;;;;;;;;;5.00;4.00;;;;;;;;3577129;39;113399;-76
2021/08/05 17:14:59;;;;;;;;;4.33;3.00;;;;;;;;3577865;39;114481;-82
2021/08/05 17:17:25;;;;;;;;;2.67;2.00;;;;;;;;3578509;39;111942;-79
2021/08/05 17:19:56;;;;;;;;;5.00;2.00;;;;;;;;3576540;39;112855;-77
2021/08/05 17:22:26;;;;;;;;;2.33;2.00;;;;;;;;3576314;39;114372;-78
2021/08/05 17:24:52;;;;;;;;;2.33;1.67;;;;;;;;3578726;39;112136;-84
2021/08/05 17:27:19;;;;;;;;;2.67;2.67;;;;;;;;3579902;39;113815;-84
2021/08/05 17:29:47;;;;;;;;;1.67;1.00;;;;;;;;3576367;39;111908;-83
2021/08/05 17:32:14;;;;;;;;;3.00;2.00;;;;;;;;3578123;39;113314;-79
2021/08/05 17:34:42;;;;;;;;;3.00;2.00;;;;;;;;3574552;39;113865;-81
2021/08/05 17:37:09;;;;;;;;;3.00;3.00;;;;;;;;3579845;39;112560;-80
2021/08/05 17:39:36;;;;;;;;;2.00;2.00;;;;;;;;3577236;39;112396;-79
2021/08/05 17:42:03;;;;;;;;;2.67;2.00;;;;;;;;3579377;39;113908;-74
2021/08/05 17:44:29;;;;;;;;;2.67;1.33;;;;;;;;3579432;39;111921;-76
2021/08/05 17:46:56;;;;;;;;;2.67;1.33;;;;;;;;3580865;39;113303;-74
2021/08/05 17:49:22;;;;;;;;;1.00;1.00;;;;;;;;3582278;39;113975;-75
2021/08/05 17:51:49;;;;;;;;;2.00;1.33;;;;;;;;3579980;39;113586;-78
2021/08/05 17:54:19;;;;;;;;;3.67;2.00;;;;;;;;3578183;39;113027;-79
2021/08/05 17:56:45;;;;;;;;;3.00;2.00;;;;;;;;3574197;39;111938;-77
2021/08/05 17:59:12;;;;;;;;;4.00;2.00;;;;;;;;3572033;39;113008;-76
2021/08/05 18:01:38;;;;;;;;;3.00;3.00;;;;;;;;3573692;39;113858;-78
2021/08/05 18:04:05;;;;;;;;;2.33;1.33;;;;;;;;3574027;39;112623;-78
2021/08/05 18:06:33;;;;;;;;;2.67;2.00;;;;;;;;3573730;39;113191;-79
2021/08/05 18:08:59;;;;;;;;;2.67;2.67;;;;;;;;3571505;39;113559;-80
2021/08/05 18:11:27;;;;;;;;;4.67;2.00;;;;;;;;3575662;39;111952;-79
2021/08/05 18:13:54;;;;;;;;;3.33;2.00;;;;;;;;3569278;39;113886;-77
2021/08/05 18:16:20;;;;;;;;;2.00;1.33;;;;;;;;3570352;39;111927;-77
2021/08/05 18:18:47;;;;;;;;;3.00;1.00;;;;;;;;3569184;39;113197;-77
2021/08/05 18:21:14;;;;;;;;;1.00;1.00;;;;;;;;3573205;39;113896;-76
2021/08/05 18:23:42;;;;;;;;;4.00;2.67;;;;;;;;3574002;39;111814;-77
2021/08/05 18:26:11;;;;;;;;;4.00;1.00;;;;;;;;3573702;39;113085;-77
2021/08/05 18:28:39;;;;;;;;;3.00;3.00;;;;;;;;3571600;39;113914;-79
2021/08/05 18:31:06;;;;;;;;;5.00;3.33;;;;;;;;3569933;39;112096;-77
2021/08/05 18:33:32;;;;;;;;;7.33;5.00;;;;;;;;3575718;39;114788;-78
2021/08/05 18:35:59;;;;;;;;;8.33;3.00;;;;;;;;3573670;39;112114;-75
2021/08/05 18:38:26;;;;;;;;;4.00;2.00;;;;;;;;3573473;39;113288;-74
2021/08/05 18:40:53;;;;;;;;;3.67;2.33;;;;;;;;3571760;39;113876;-73
2021/08/05 18:43:20;;;;;;;;;4.00;3.00;;;;;;;;3573442;39;112346;-73
2021/08/05 18:45:48;;;;;;;;;3.00;2.00;;;;;;;;3573388;39;113610;-73
2021/08/05 18:48:15;;;;;;;;;9.67;3.33;;;;;;;;3567971;39;112924;-75
2021/08/05 18:50:42;;;;;;;;;3.67;3.67;;;;;;;;3573163;39;112196;-73
2021/08/05 18:53:09;;;;;;;;;4.00;4.00;;;;;;;;3571908;39;113304;-72
2021/08/05 18:55:35;;;;;;;;;3.00;2.67;;;;;;;;3575355;39;112567;-73
2021/08/05 18:58:03;;;;;;;;;2.00;2.00;;;;;;;;3573373;39;113208;-75
2021/08/05 19:00:30;;;;;;;;;6.33;3.67;;;;;;;;3572279;39;114679;-74
2021/08/05 19:02:58;;;;;;;;;4.00;3.67;;;;;;;;3572942;39;111844;-76
2021/08/05 19:05:25;;;;;;;;;4.33;2.00;;;;;;;;3572501;39;113127;-75
2021/08/05 19:07:53;;;;;;;;;5.33;3.00;;;;;;;;3571852;39;114770;-74
2021/08/05 19:10:19;;;;;;;;;4.67;3.00;;;;;;;;3569811;39;112320;-74
2021/08/05 19:12:46;;;;;;;;;2.00;2.00;;;;;;;;3569941;39;112594;-75
2021/08/05 19:15:13;;;;;;;;;3.00;3.00;;;;;;;;3575475;39;113943;-74
2021/08/05 19:17:40;;;;;;;;;4.67;2.00;;;;;;;;3573648;39;113429;-74
2021/08/05 19:20:09;;;;;;;;;3.67;2.00;;;;;;;;3570005;39;113869;-74
2021/08/05 19:22:36;;;;;;;;;4.00;2.00;;;;;;;;3573148;39;111951;-74
2021/08/05 19:25:03;;;;;;;;;4.67;3.00;;;;;;;;3571918;39;113143;-77
2021/08/05 19:27:30;;;;;;;;;3.00;3.00;;;;;;;;3571370;39;114067;-75
2021/08/05 19:29:57;;;;;;;;;4.33;2.00;;;;;;;;3572282;39;112215;-74
2021/08/05 19:32:23;;;;;;;;;5.33;3.00;;;;;;;;3569142;39;113389;-74
2021/08/05 19:34:50;;;;;;;;;3.00;3.00;;;;;;;;3568655;39;113942;-76
2021/08/05 19:37:18;;;;;;;;;3.00;2.00;;;;;;;;3571568;39;111903;-76
2021/08/05 19:39:44;;;;;;;;;3.00;1.67;;;;;;;;3569027;39;113821;-74
2021/08/05 19:42:11;;;;;;;;;3.50;3.00;;;;;;;;3570535;39;112482;-76
2021/08/05 19:44:38;;;;;;;;;3.50;3.00;;;;;;;;3570115;39;114315;-76
2021/08/05 19:47:07;;;;;;;;;3.75;3.50;;;;;;;;3570213;39;112904;-78
2021/08/05 19:49:34;;;;;;;;;2.25;2.00;;;;;;;;3568105;39;113019;-75
2021/08/05 19:52:01;;;;;;;;;3.50;3.00;;;;;;;;3570913;39;113234;-79
2021/08/05 19:54:32;;;;;;;;;4.50;3.00;;;;;;;;3569153;39;113976;-78
2021/08/05 19:57:01;;;;;;;;;3.00;3.00;;;;;;;;3566343;39;112350;-79
2021/08/05 19:59:29;;;;;;;;;3.25;2.25;;;;;;;;3571422;39;113248;-79
2021/08/05 20:01:56;;;;;;;;;3.00;3.00;;;;;;;;3566907;39;112387;-77
2021/08/05 20:04:23;;;;;;;;;1.67;1.67;;;;;;;;3568648;39;113509;-74
2021/08/05 20:06:49;;;;;;;;;3.50;1.75;;;;;;;;3568978;39;114768;-75
2021/08/05 20:09:16;;;;;;;;;4.50;3.00;;;;;;;;3565198;39;113169;-75
2021/08/05 20:11:44;;;;;;;;;3.00;3.00;;;;;;;;3569242;39;113267;-76
2021/08/05 20:14:10;;;;;;;;;5.75;3.25;;;;;;;;3573339;39;114359;-76
2021/08/05 20:16:39;;;;;;;;;2.75;2.75;;;;;;;;3571415;39;111924;-75
2021/08/05 20:19:05;;;;;;;;;5.75;4.00;;;;;;;;3572909;39;113864;-76
2021/08/05 20:21:32;;;;;;;;;1.25;1.25;;;;;;;;3572452;39;114219;-75
2021/08/05 20:23:58;;;;;;;;;5.00;3.00;;;;;;;;3569426;39;113263;-76
2021/08/05 20:26:25;;;;;;;;;3.25;2.00;;;;;;;;3568239;39;114265;-76
2021/08/05 20:28:53;;;;;;;;;3.00;3.00;;;;;;;;3568865;39;111802;-76
2021/08/05 20:31:23;;;;;;;;;4.00;3.75;;;;;;;;3568796;39;113255;-76
2021/08/05 20:33:53;;;;;;;;;2.00;2.00;;;;;;;;3567767;39;113763;-76
2021/08/05 20:36:22;;;;;;;;;2.50;2.50;;;;;;;;3568469;39;113077;-76
2021/08/05 20:38:49;;;;;;;;;4.00;2.50;;;;;;;;3569141;39;113156;-77
2021/08/05 20:41:15;;;;;;;;;6.75;4.00;;;;;;;;3567463;39;114977;-77
2021/08/05 20:43:42;;;;;;;;;4.00;2.75;;;;;;;;3572379;39;112372;-75
2021/08/05 20:46:10;;;;;;;;;2.50;2.50;;;;;;;;3567450;39;113883;-75
2021/08/05 20:48:36;;;;;;;;;3.50;2.75;;;;;;;;3571536;39;112114;-73
2021/08/05 20:51:03;;;;;;;;;2.00;1.75;;;;;;;;3567631;39;114284;-78
2021/08/05 20:53:30;;;;;;;;;2.75;1.25;;;;;;;;3567286;39;114013;-79
2021/08/05 20:56:07;;;;;;;;;2.00;1.75;;;;;;;;3572373;39;112292;-75
2021/08/05 20:58:34;;;;;;;;;2.75;2.00;;;;;;;;3570763;39;113397;-75
2021/08/05 21:01:00;;;;;;;;;3.00;0.75;;;;;;;;3569363;39;114244;-77
2021/08/05 21:03:28;;;;;;;;;3.00;1.00;;;;;;;;3569443;39;111917;-76
2021/08/05 21:05:55;;;;;;;;;1.25;1.00;;;;;;;;3568083;39;114218;-75
2021/08/05 21:08:21;;;;;;;;;2.75;2.00;;;;;;;;3568648;39;112351;-75